Time;durP1;ratioP1;P1;durP2;ratioP2;P2;SDS_P1;SDS_P2;PMS_P1;PMS_P2;Temp;Humidity;BMP_temperature;BMP_pressure;BME280_temperature;BME280_humidity;BME280_pressure;Samples;Min_cycle;Max_cycle;Signal;HPM_P1;HPM_P2
2024/02/01 00:00:10;;;;;;;10.15;4.70;;;8.30;99.90;;;;;;5092790;28;20391;-54
2024/02/01 00:02:36;;;;;;;12.85;4.32;;;8.40;99.90;;;;;;5095659;28;20023;-53
2024/02/01 00:05:01;;;;;;;9.38;5.00;;;8.40;99.90;;;;;;5092844;28;20618;-50
2024/02/01 00:07:27;;;;;;;6.82;3.65;;;8.50;99.90;;;;;;5108659;28;20392;-38
2024/02/01 00:09:53;;;;;;;21.40;4.22;;;8.50;99.90;;;;;;5113220;28;20081;-39
2024/02/01 00:12:18;;;;;;;7.45;4.13;;;8.60;99.90;;;;;;5113490;28;20427;-41
2024/02/01 00:14:44;;;;;;;12.50;4.78;;;8.60;99.90;;;;;;5112968;28;20032;-44
2024/02/01 00:17:10;;;;;;;8.65;4.55;;;8.60;99.90;;;;;;5093107;28;20070;-41
2024/02/01 00:19:35;;;;;;;13.13;4.85;;;8.70;99.90;;;;;;5092898;28;20088;-40
2024/02/01 00:22:01;;;;;;;11.05;5.07;;;8.70;99.90;;;;;;5092520;28;20071;-45
2024/02/01 00:24:26;;;;;;;9.18;4.30;;;8.80;99.90;;;;;;5092653;28;20051;-41
2024/02/01 00:26:52;;;;;;;18.67;5.10;;;8.80;99.90;;;;;;5092538;28;20028;-40
2024/02/01 00:29:18;;;;;;;7.45;3.92;;;8.80;99.90;;;;;;5092551;28;20020;-43
2024/02/01 00:31:43;;;;;;;19.15;4.47;;;8.80;99.90;;;;;;5092528;28;20103;-41
2024/02/01 00:34:09;;;;;;;9.13;4.25;;;8.90;99.90;;;;;;5092530;28;20384;-44
2024/02/01 00:36:35;;;;;;;11.48;3.35;;;9.00;99.90;;;;;;5092647;28;20043;-40
2024/02/01 00:39:00;;;;;;;11.00;4.28;;;9.00;99.90;;;;;;5101302;28;20012;-40
2024/02/01 00:41:26;;;;;;;20.88;3.72;;;9.10;99.90;;;;;;5113150;28;20043;-40
2024/02/01 00:43:52;;;;;;;15.07;4.20;;;9.20;99.90;;;;;;5101424;28;20028;-38
2024/02/01 00:46:17;;;;;;;14.88;3.78;;;9.30;99.90;;;;;;5092657;28;20020;-38
2024/02/01 00:48:43;;;;;;;13.00;4.68;;;9.30;99.90;;;;;;5092249;28;20096;-42
2024/02/01 00:51:09;;;;;;;19.75;4.75;;;9.40;99.90;;;;;;5092460;28;20484;-40
2024/02/01 00:53:34;;;;;;;8.10;4.68;;;9.40;99.90;;;;;;5092423;28;20498;-39
2024/02/01 00:56:01;;;;;;;13.10;4.38;;;9.40;99.90;;;;;;5092404;28;20164;-38
2024/02/01 00:58:27;;;;;;;14.35;4.80;;;9.40;99.90;;;;;;5092412;28;20032;-41
2024/02/01 01:00:52;;;;;;;7.65;4.30;;;9.50;99.90;;;;;;5092415;28;20054;-39
2024/02/01 01:03:18;;;;;;;17.48;4.40;;;9.40;99.90;;;;;;5092201;28;20093;-41
2024/02/01 01:05:44;;;;;;;15.52;6.18;;;9.40;99.90;;;;;;5091132;28;20024;-39
2024/02/01 01:08:09;;;;;;;21.67;4.78;;;9.50;99.90;;;;;;5095766;28;20031;-39
2024/02/01 01:10:35;;;;;;;11.20;4.32;;;9.50;99.90;;;;;;5096154;28;20021;-36
2024/02/01 01:13:01;;;;;;;14.13;5.38;;;9.50;99.90;;;;;;5095947;28;20412;-41
2024/02/01 01:15:26;;;;;;;14.02;4.40;;;9.50;99.90;;;;;;5100533;28;20012;-44
2024/02/01 01:17:52;;;;;;;17.85;5.85;;;9.50;99.90;;;;;;5114717;28;20051;-41
2024/02/01 01:20:18;;;;;;;15.00;4.38;;;9.60;99.90;;;;;;5112558;28;20391;-42
2024/02/01 01:22:43;;;;;;;15.05;3.97;;;9.60;99.90;;;;;;5115955;28;20039;-47
2024/02/01 01:25:09;;;;;;;17.35;5.00;;;9.60;99.90;;;;;;5116325;28;20468;-40
2024/02/01 01:27:35;;;;;;;16.50;3.67;;;9.60;99.90;;;;;;5116225;28;20024;-38
2024/02/01 01:30:00;;;;;;;17.90;4.57;;;9.60;99.90;;;;;;5114366;28;20023;-39
2024/02/01 01:32:26;;;;;;;17.58;4.00;;;9.60;99.90;;;;;;5102057;28;20052;-39
2024/02/01 01:34:52;;;;;;;15.80;3.97;;;9.60;99.90;;;;;;5095527;28;20507;-40
2024/02/01 01:37:17;;;;;;;12.93;3.97;;;9.60;99.90;;;;;;5095597;28;20024;-39
2024/02/01 01:39:43;;;;;;;20.38;4.50;;;9.60;99.90;;;;;;5095549;28;20055;-39
2024/02/01 01:42:08;;;;;;;12.95;4.82;;;9.60;99.90;;;;;;5095562;28;20224;-41
2024/02/01 01:44:34;;;;;;;15.00;4.93;;;9.60;99.90;;;;;;5095479;28;20024;-40
2024/02/01 01:47:00;;;;;;;28.70;4.80;;;9.60;99.90;;;;;;5102558;28;20019;-41
2024/02/01 01:49:25;;;;;;;41.38;4.60;;;9.60;99.90;;;;;;5112635;28;20387;-42
2024/02/01 01:51:53;;;;;;;18.33;4.20;;;9.60;99.90;;;;;;5113843;28;20015;-39
2024/02/01 01:54:21;;;;;;;33.53;5.05;;;9.50;99.90;;;;;;5095327;28;20028;-38
2024/02/01 01:56:48;;;;;;;28.05;4.22;;;9.50;99.90;;;;;;5095088;28;20020;-38
2024/02/01 01:59:16;;;;;;;22.02;3.65;;;9.50;99.90;;;;;;5115259;28;20089;-38
2024/02/01 02:01:45;;;;;;;24.33;4.57;;;9.50;99.90;;;;;;5115436;28;20456;-39
2024/02/01 02:04:15;;;;;;;25.00;5.25;;;9.50;99.90;;;;;;5114070;28;20024;-39
2024/02/01 02:06:42;;;;;;;28.15;4.40;;;9.50;99.90;;;;;;5114808;28;20472;-37
2024/02/01 02:09:12;;;;;;;31.52;3.85;;;9.50;99.90;;;;;;5115297;27;20024;-40
2024/02/01 02:11:44;;;;;;;27.65;3.70;;;9.50;99.90;;;;;;5114075;28;20023;-38
2024/02/01 02:14:16;;;;;;;23.42;3.80;;;9.50;99.90;;;;;;5114609;28;20474;-38
2024/02/01 02:16:43;;;;;;;11.38;3.08;;;9.50;99.90;;;;;;5099840;28;20032;-40
2024/02/01 02:19:09;;;;;;;21.67;4.15;;;9.50;99.90;;;;;;5094427;28;20028;-38
2024/02/01 02:21:55;;;;;;;37.85;4.18;;;9.40;99.90;;;;;;5094613;28;20055;-38
2024/02/01 02:24:21;;;;;;;14.63;4.53;;;9.40;99.90;;;;;;5094417;28;20396;-37
2024/02/01 02:26:47;;;;;;;21.45;4.80;;;9.40;99.90;;;;;;5093814;28;20050;-53
2024/02/01 02:29:17;;;;;;;25.00;5.75;;;9.40;99.90;;;;;;5114260;28;20019;-54
2024/02/01 02:31:43;;;;;;;23.20;4.72;;;9.40;99.90;;;;;;5114907;28;20019;-55
2024/02/01 02:34:09;;;;;;;12.40;5.25;;;9.40;99.90;;;;;;5096445;28;20028;-53
2024/02/01 02:36:35;;;;;;;19.10;4.95;;;9.30;99.90;;;;;;5114868;28;20526;-53
2024/02/01 02:39:02;;;;;;;27.60;4.15;;;9.30;99.90;;;;;;5108762;28;20480;-51
2024/02/01 02:41:28;;;;;;;23.98;4.68;;;9.20;99.90;;;;;;5094353;28;20024;-53
2024/02/01 02:43:53;;;;;;;25.35;3.55;;;9.30;99.90;;;;;;5098010;28;20020;-53
2024/02/01 02:46:19;;;;;;;23.92;3.25;;;9.30;99.90;;;;;;5114869;28;20033;-53
2024/02/01 02:48:45;;;;;;;12.00;3.83;;;9.20;99.90;;;;;;5113597;28;20475;-53
2024/02/01 02:51:11;;;;;;;24.75;4.90;;;9.10;99.90;;;;;;5113305;28;20016;-52
2024/02/01 02:53:37;;;;;;;22.02;2.42;;;9.10;99.90;;;;;;5114054;28;20472;-53
2024/02/01 02:56:08;;;;;;;20.48;3.30;;;8.90;99.90;;;;;;5114441;28;20055;-55
2024/02/01 02:58:44;;;;;;;22.60;2.40;;;8.80;99.90;;;;;;5110143;28;20078;-53
2024/02/01 03:01:10;;;;;;;18.92;2.67;;;8.80;99.90;;;;;;5094097;28;20031;-53
2024/02/01 03:03:40;;;;;;;18.90;3.00;;;8.70;99.90;;;;;;5093929;28;20396;-50
2024/02/01 03:06:09;;;;;;;15.63;2.40;;;8.60;99.90;;;;;;5093900;28;20027;-60
2024/02/01 03:08:40;;;;;;;13.07;3.65;;;8.50;99.90;;;;;;5093819;28;20490;-52
2024/02/01 03:11:10;;;;;;;19.77;3.15;;;8.50;99.90;;;;;;5094043;28;20020;-52
2024/02/01 03:13:45;;;;;;;20.83;2.30;;;8.50;99.90;;;;;;5106574;28;20023;-52
2024/02/01 03:16:21;;;;;;;12.75;3.22;;;8.40;99.90;;;;;;5101823;28;20077;-52
2024/02/01 03:18:48;;;;;;;14.15;2.42;;;8.30;99.90;;;;;;5100316;28;20045;-53
2024/02/01 03:21:15;;;;;;;14.90;2.58;;;8.30;99.90;;;;;;5113899;28;20472;-47
2024/02/01 03:23:46;;;;;;;10.80;1.88;;;8.20;99.90;;;;;;5113125;28;20031;-52
2024/02/01 03:26:13;;;;;;;19.33;2.03;;;8.10;99.90;;;;;;5113887;28;20097;-53
2024/02/01 03:28:43;;;;;;;14.90;1.92;;;8.10;99.90;;;;;;5106642;28;20024;-52
2024/02/01 03:31:09;;;;;;;25.85;2.38;;;8.10;99.90;;;;;;5093247;28;20519;-52
2024/02/01 03:33:44;;;;;;;12.40;1.17;;;7.90;99.90;;;;;;5100144;28;20140;-52
2024/02/01 03:36:11;;;;;;;24.30;2.50;;;7.80;99.90;;;;;;5113832;28;20122;-50
2024/02/01 03:38:40;;;;;;;8.05;1.73;;;7.80;99.90;;;;;;5111968;28;20020;-34
2024/02/01 03:41:06;;;;;;;20.85;2.83;;;7.70;99.90;;;;;;5113637;28;20031;-34
2024/02/01 03:43:32;;;;;;;21.02;2.88;;;7.60;99.90;;;;;;5113659;28;20034;-35
2024/02/01 03:45:58;;;;;;;17.08;2.47;;;7.40;99.90;;;;;;5113567;28;20517;-35
2024/02/01 03:48:24;;;;;;;18.90;2.42;;;7.40;99.90;;;;;;5112726;28;20031;-35
2024/02/01 03:50:50;;;;;;;6.93;1.73;;;7.30;99.90;;;;;;5113553;28;20019;-34
2024/02/01 03:53:16;;;;;;;13.68;2.08;;;7.20;99.90;;;;;;5113457;28;20019;-35
2024/02/01 03:55:42;;;;;;;18.42;1.92;;;7.20;99.90;;;;;;5113437;28;20578;-34
2024/02/01 03:58:08;;;;;;;22.30;2.22;;;7.10;99.90;;;;;;5108653;28;20048;-36
2024/02/01 04:00:34;;;;;;;14.70;1.90;;;7.00;99.90;;;;;;5093069;28;20369;-36
2024/02/01 04:03:05;;;;;;;24.55;2.33;;;7.00;99.90;;;;;;5092858;28;20024;-35
2024/02/01 04:05:37;;;;;;;11.23;1.35;;;6.90;99.90;;;;;;5092956;28;20392;-34
2024/02/01 04:08:17;;;;;;;17.42;2.38;;;6.90;99.90;;;;;;5092944;28;20047;-38
2024/02/01 04:10:45;;;;;;;15.93;1.75;;;6.80;99.90;;;;;;5092877;28;20046;-35
2024/02/01 04:13:10;;;;;;;22.77;2.15;;;6.70;99.90;;;;;;5092910;28;20384;-34
2024/02/01 04:15:36;;;;;;;16.10;2.05;;;6.70;99.90;;;;;;5099166;28;20023;-36
2024/02/01 04:18:04;;;;;;;11.50;2.78;;;6.60;99.90;;;;;;5112000;28;20410;-35
2024/02/01 04:20:30;;;;;;;24.55;2.10;;;6.60;99.90;;;;;;5113069;28;20016;-35
2024/02/01 04:22:56;;;;;;;13.07;1.20;;;6.60;99.90;;;;;;5112986;28;20555;-35
2024/02/01 04:25:25;;;;;;;11.05;2.63;;;6.50;99.90;;;;;;5113286;28;20024;-35
2024/02/01 04:27:52;;;;;;;13.27;1.70;;;6.50;99.90;;;;;;5111339;28;20073;-35
2024/02/01 04:30:20;;;;;;;18.75;2.63;;;6.50;99.90;;;;;;5113070;28;20015;-35
2024/02/01 04:32:47;;;;;;;19.33;3.72;;;6.50;99.90;;;;;;5111083;28;20115;-36
2024/02/01 04:35:14;;;;;;;13.48;3.22;;;6.50;99.90;;;;;;5092607;28;20409;-36
2024/02/01 04:37:40;;;;;;;8.95;1.00;;;6.50;99.90;;;;;;5092515;28;20059;-35
2024/02/01 04:40:10;;;;;;;22.98;2.78;;;6.50;99.90;;;;;;5092770;28;20020;-35
2024/02/01 04:42:37;;;;;;;11.23;2.45;;;6.40;99.90;;;;;;5096951;28;20089;-37
2024/02/01 04:45:04;;;;;;;21.00;3.25;;;6.40;99.90;;;;;;5096568;28;20065;-35
2024/02/01 04:47:32;;;;;;;14.07;1.63;;;6.30;99.90;;;;;;5096654;28;20023;-36
2024/02/01 04:49:58;;;;;;;17.20;3.05;;;6.30;99.90;;;;;;5096374;28;20027;-36
2024/02/01 04:52:24;;;;;;;19.92;1.33;;;6.30;99.90;;;;;;5096776;28;20028;-35
2024/02/01 04:54:49;;;;;;;12.50;1.67;;;6.30;99.90;;;;;;5096588;28;20020;-34
2024/02/01 04:57:15;;;;;;;37.88;3.80;;;6.20;99.90;;;;;;5096394;28;20099;-36
2024/02/01 04:59:45;;;;;;;10.00;1.50;;;6.20;99.90;;;;;;5096352;28;20019;-35
2024/02/01 05:02:14;;;;;;;16.83;2.22;;;6.10;99.90;;;;;;5096316;28;20099;-35
2024/02/01 05:04:41;;;;;;;9.18;1.55;;;6.10;99.90;;;;;;5116446;28;20027;-36
2024/02/01 05:07:07;;;;;;;8.77;1.65;;;6.10;99.90;;;;;;5116631;28;20395;-35
2024/02/01 05:09:37;;;;;;;6.65;1.45;;;6.00;99.90;;;;;;5116800;28;20020;-36
2024/02/01 05:12:03;;;;;;;5.63;1.20;;;6.00;99.90;;;;;;5117228;28;20375;-35
2024/02/01 05:14:29;;;;;;;11.02;1.52;;;6.00;99.90;;;;;;5115576;28;20039;-37
2024/02/01 05:16:55;;;;;;;18.95;1.98;;;5.90;99.90;;;;;;5098841;28;20020;-36
2024/02/01 05:19:21;;;;;;;22.73;1.80;;;5.90;99.90;;;;;;5096196;28;20391;-36
2024/02/01 05:21:47;;;;;;;14.05;1.90;;;5.80;99.90;;;;;;5095664;28;20082;-36
2024/02/01 05:24:14;;;;;;;8.35;1.75;;;5.80;99.90;;;;;;5096095;28;20052;-36
2024/02/01 05:26:42;;;;;;;6.95;1.63;;;5.80;99.90;;;;;;5095837;28;20073;-37
2024/02/01 05:29:11;;;;;;;9.25;1.20;;;5.80;99.90;;;;;;5094625;28;20413;-36
2024/02/01 05:31:47;;;;;;;9.90;1.10;;;5.80;99.90;;;;;;5096060;28;20133;-36
2024/02/01 05:34:14;;;;;;;11.15;1.70;;;5.70;99.90;;;;;;5095665;28;20500;-35
2024/02/01 05:36:39;;;;;;;10.20;1.77;;;5.70;99.90;;;;;;5095607;28;20407;-36
2024/02/01 05:39:05;;;;;;;8.15;0.88;;;5.70;99.90;;;;;;5095724;28;20044;-35
2024/02/01 05:41:31;;;;;;;8.38;1.45;;;5.70;99.90;;;;;;5109829;28;20027;-36
2024/02/01 05:43:57;;;;;;;8.95;1.13;;;5.70;99.90;;;;;;5116169;28;20024;-36
2024/02/01 05:46:22;;;;;;;13.60;2.95;;;5.70;99.90;;;;;;5115648;28;20056;-36
2024/02/01 05:48:48;;;;;;;20.60;2.60;;;5.70;99.90;;;;;;5101923;28;20480;-36
2024/02/01 05:51:14;;;;;;;11.32;1.40;;;5.70;99.90;;;;;;5095338;28;20024;-36
2024/02/01 05:53:40;;;;;;;21.00;2.45;;;5.60;99.90;;;;;;5094869;28;20437;-36
2024/02/01 05:56:06;;;;;;;17.98;2.05;;;5.60;99.90;;;;;;5095569;28;20505;-53
2024/02/01 05:58:32;;;;;;;17.80;1.92;;;5.60;99.90;;;;;;5093998;28;20036;-36
2024/02/01 06:00:59;;;;;;;17.98;1.98;;;5.50;99.90;;;;;;5093768;28;20031;-36
2024/02/01 06:03:25;;;;;;;15.03;1.87;;;5.50;99.90;;;;;;5095388;28;20034;-36
2024/02/01 06:05:51;;;;;;;13.70;1.88;;;5.50;99.90;;;;;;5095313;28;20130;-37
2024/02/01 06:08:16;;;;;;;17.38;2.53;;;5.50;99.90;;;;;;5094920;28;20016;-37
2024/02/01 06:10:42;;;;;;;18.40;1.95;;;5.50;99.90;;;;;;5094962;28;20024;-36
2024/02/01 06:13:08;;;;;;;12.85;1.80;;;5.40;99.90;;;;;;5094940;28;20549;-38
2024/02/01 06:15:34;;;;;;;12.52;2.65;;;5.40;99.90;;;;;;5100880;28;20100;-38
2024/02/01 06:18:00;;;;;;;30.40;1.70;;;5.40;99.90;;;;;;5112755;28;20500;-37
2024/02/01 06:20:25;;;;;;;19.50;2.33;;;5.40;99.90;;;;;;5097028;28;20213;-36
2024/02/01 06:22:51;;;;;;;19.15;2.17;;;5.50;99.90;;;;;;5093212;28;20102;-37
2024/02/01 06:25:17;;;;;;;23.08;2.90;;;5.50;99.90;;;;;;5094544;28;20028;-36
2024/02/01 06:27:43;;;;;;;14.27;2.28;;;5.50;99.90;;;;;;5094625;28;20107;-37
2024/02/01 06:30:12;;;;;;;17.48;1.63;;;5.50;99.90;;;;;;5094878;28;20484;-38
2024/02/01 06:32:39;;;;;;;6.82;1.73;;;5.50;99.90;;;;;;5105837;28;20540;-37
2024/02/01 06:35:13;;;;;;;15.38;1.42;;;5.50;99.90;;;;;;5113649;28;20038;-37
2024/02/01 06:37:51;;;;;;;17.60;2.13;;;5.50;99.90;;;;;;5114356;28;20495;-37
2024/02/01 06:40:37;;;;;;;15.80;1.80;;;5.50;99.90;;;;;;5112772;28;20024;-37
2024/02/01 06:43:11;;;;;;;22.02;2.55;;;5.50;99.90;;;;;;5094642;28;20093;-36
2024/02/01 06:45:45;;;;;;;15.30;2.22;;;5.40;99.90;;;;;;5093286;28;20024;-36
2024/02/01 06:48:14;;;;;;;13.75;1.50;;;5.40;99.90;;;;;;5105654;28;20019;-36
2024/02/01 06:50:54;;;;;;;14.45;2.88;;;5.40;99.90;;;;;;5109207;28;20442;-36
2024/02/01 06:53:20;;;;;;;9.32;1.20;;;5.40;99.90;;;;;;5094304;28;20095;-38
2024/02/01 06:58:56;;;;;;;9.40;2.53;;;5.30;99.90;;;;;;5088953;28;20043;-37
2024/02/01 07:01:24;;;;;;;16.75;3.22;;;5.30;99.90;;;;;;5107526;28;20024;-38
2024/02/01 07:06:39;;;;;;;13.70;1.63;;;5.30;99.90;;;;;;5113222;28;20046;-38
2024/02/01 07:09:27;;;;;;;11.93;1.92;;;5.30;99.90;;;;;;5114219;28;20028;-54
2024/02/01 07:12:09;;;;;;;16.58;2.35;;;5.30;99.90;;;;;;5107404;28;20439;-54
2024/02/01 07:14:36;;;;;;;24.30;3.55;;;5.20;99.90;;;;;;5093823;28;20027;-57
2024/02/01 07:20:13;;;;;;;19.15;2.03;;;5.20;99.90;;;;;;5101577;28;20039;-54
2024/02/01 07:22:50;;;;;;;15.93;3.30;;;5.20;99.90;;;;;;5093625;28;20440;-55
2024/02/01 07:25:36;;;;;;;7.95;2.03;;;5.10;99.90;;;;;;5093496;28;20028;-54
2024/02/01 07:58:14;;;;;;;20.13;1.95;;;5.10;99.90;;;;;;5092877;28;20479;-56
2024/02/01 08:00:48;;;;;;;22.33;2.28;;;5.20;99.90;;;;;;5092814;28;20383;-55
2024/02/01 08:08:35;;;;;;;17.40;1.85;;;5.30;99.90;;;;;;5102016;28;20035;-55
2024/02/01 08:11:01;;;;;;;16.65;2.00;;;5.30;99.90;;;;;;5109594;28;20066;-52
2024/02/01 08:13:27;;;;;;;9.63;1.95;;;5.30;99.90;;;;;;5113184;28;20498;-53
2024/02/01 08:15:53;;;;;;;14.18;1.73;;;5.30;99.90;;;;;;5108164;28;20108;-53
2024/02/01 08:18:19;;;;;;;17.83;3.03;;;5.40;99.90;;;;;;5113495;28;20080;-56
2024/02/01 08:20:46;;;;;;;16.65;2.20;;;5.40;99.90;;;;;;5107222;28;20384;-54
2024/02/01 08:23:21;;;;;;;17.10;1.92;;;5.50;99.90;;;;;;5112911;28;20047;-53
2024/02/01 08:25:51;;;;;;;15.82;1.95;;;5.50;99.90;;;;;;5095874;28;20465;-54
2024/02/01 08:28:17;;;;;;;17.27;2.15;;;5.50;99.90;;;;;;5092714;28;20465;-54
2024/02/01 08:30:45;;;;;;;18.98;2.10;;;5.60;99.90;;;;;;5108598;28;20070;-54
2024/02/01 08:33:21;;;;;;;21.67;3.17;;;5.60;99.90;;;;;;5113342;28;20019;-53
2024/02/01 08:35:47;;;;;;;16.83;2.00;;;5.70;99.90;;;;;;5095924;28;20504;-54
2024/02/01 08:38:13;;;;;;;17.73;2.22;;;5.70;99.90;;;;;;5092633;28;20027;-53
2024/02/01 08:40:40;;;;;;;22.45;2.58;;;5.70;99.90;;;;;;5109337;28;20551;-52
2024/02/01 08:43:10;;;;;;;14.02;1.77;;;5.80;99.90;;;;;;5102311;28;20115;-54
2024/02/01 08:45:39;;;;;;;27.13;3.63;;;5.80;99.90;;;;;;5092305;28;20031;-55
2024/02/01 08:48:08;;;;;;;19.17;2.75;;;5.90;99.90;;;;;;5092521;28;20032;-56
2024/02/01 08:50:46;;;;;;;23.95;3.00;;;5.90;99.90;;;;;;5092716;28;20502;-51
2024/02/01 08:53:15;;;;;;;;;;;5.90;99.90;;;;;;5092886;28;20028;-55
2024/02/01 08:55:41;;;;;;;21.83;2.30;;;6.00;99.90;;;;;;5091340;28;20411;-53
2024/02/01 08:58:11;;;;;;;17.85;2.72;;;6.00;99.90;;;;;;5092726;28;20468;-55
2024/02/01 09:00:44;;;;;;;16.42;2.15;;;6.10;99.90;;;;;;5092920;28;20077;-55
2024/02/01 09:03:19;;;;;;;12.02;1.70;;;6.10;99.90;;;;;;5102523;28;20371;-56
2024/02/01 09:05:47;;;;;;;18.90;2.60;;;6.20;99.90;;;;;;5110726;28;20494;-53
2024/02/01 09:08:15;;;;;;;26.15;2.97;;;6.20;99.90;;;;;;5102030;28;20022;-56
2024/02/01 09:10:50;;;;;;;15.68;2.70;;;6.20;99.90;;;;;;5112662;28;20020;-55
2024/02/01 09:13:17;;;;;;;24.38;2.65;;;6.30;99.90;;;;;;5112980;28;20028;-54
2024/02/01 09:15:43;;;;;;;24.43;3.07;;;6.40;99.90;;;;;;5111166;28;20111;-55
2024/02/01 09:18:09;;;;;;;21.92;1.90;;;6.40;99.90;;;;;;5112861;28;20569;-53
2024/02/01 09:20:34;;;;;;;37.67;4.10;;;6.50;99.90;;;;;;5101045;28;20066;-54
2024/02/01 09:23:00;;;;;;;12.98;2.70;;;6.60;99.90;;;;;;5092090;28;20581;-55
2024/02/01 09:25:25;;;;;;;25.70;3.33;;;6.70;99.90;;;;;;5091982;28;20036;-55
2024/02/01 09:27:54;;;;;;;14.20;2.67;;;6.70;99.90;;;;;;5093649;28;20030;-40
2024/02/01 09:30:23;;;;;;;23.40;2.25;;;6.80;99.90;;;;;;5114008;28;20031;-37
2024/02/01 09:32:53;;;;;;;33.20;4.18;;;6.80;99.90;;;;;;5106084;28;20539;-39
2024/02/01 09:35:22;;;;;;;19.85;2.42;;;6.90;99.90;;;;;;5094468;28;20484;-40
2024/02/01 09:37:51;;;;;;;16.20;3.28;;;6.90;99.90;;;;;;5099890;28;20127;-40
2024/02/01 09:40:23;;;;;;;28.15;3.50;;;7.00;99.90;;;;;;5116027;28;20063;-41
2024/02/01 09:42:50;;;;;;;21.35;3.25;;;7.00;99.90;;;;;;5103566;28;20032;-40
2024/02/01 09:45:20;;;;;;;25.60;2.58;;;7.20;99.90;;;;;;5115396;28;20039;-42
2024/02/01 09:47:47;;;;;;;14.30;3.47;;;7.20;99.90;;;;;;5101476;28;20444;-41
2024/02/01 09:50:20;;;;;;;27.52;1.75;;;7.20;99.90;;;;;;5095367;28;20021;-39
2024/02/01 09:52:48;;;;;;;16.30;2.75;;;7.20;99.90;;;;;;5095613;28;20028;-37
2024/02/01 09:55:18;;;;;;;26.33;3.10;;;7.30;99.90;;;;;;5095509;28;20481;-40
2024/02/01 09:57:53;;;;;;;19.70;2.88;;;7.40;99.90;;;;;;5110695;28;20496;-43
2024/02/01 10:00:22;;;;;;;23.48;3.03;;;7.40;99.90;;;;;;5113880;28;20035;-38
2024/02/01 10:02:57;;;;;;;20.52;2.40;;;7.50;99.90;;;;;;5099359;28;20111;-39
2024/02/01 10:05:23;;;;;;;28.13;4.45;;;7.60;99.90;;;;;;5095128;28;20388;-38
2024/02/01 10:07:52;;;;;;;18.08;2.42;;;7.70;99.90;;;;;;5095097;28;20028;-39
2024/02/01 10:10:20;;;;;;;21.85;2.50;;;7.70;99.90;;;;;;5105554;28;20479;-39
2024/02/01 10:12:46;;;;;;;34.63;4.45;;;7.80;99.90;;;;;;5098320;28;20108;-39
2024/02/01 10:15:20;;;;;;;18.27;2.28;;;7.80;99.90;;;;;;5093424;28;20043;-39
2024/02/01 10:17:51;;;;;;;26.58;3.25;;;7.80;99.90;;;;;;5105015;28;20028;-38
2024/02/01 10:20:39;;;;;;;30.80;3.63;;;7.80;99.90;;;;;;5097927;27;20051;-38
2024/02/01 10:23:09;;;;;;;;;;;7.90;99.90;;;;;;5093879;28;20127;-37
2024/02/01 10:25:39;;;;;;;15.70;3.13;;;7.90;99.90;;;;;;5094107;28;19912;-37
2024/02/01 10:28:07;;;;;;;22.48;3.13;;;8.00;99.90;;;;;;5095763;28;20024;-37
2024/02/01 10:30:36;;;;;;;21.73;3.05;;;8.10;99.90;;;;;;5113460;27;20020;-39
2024/02/01 10:33:02;;;;;;;17.13;2.67;;;8.20;99.90;;;;;;5115284;28;20035;-38
2024/02/01 10:35:32;;;;;;;27.55;3.13;;;8.30;99.90;;;;;;5115015;28;20081;-40
2024/02/01 10:38:01;;;;;;;20.08;2.75;;;8.20;99.90;;;;;;5113198;27;20437;-55
2024/02/01 10:40:39;;;;;;;17.13;2.97;;;8.20;99.90;;;;;;5094248;28;20064;-58
2024/02/01 10:43:07;;;;;;;16.00;1.83;;;8.10;99.90;;;;;;5094603;28;20548;-55
2024/02/01 10:45:37;;;;;;;20.83;2.47;;;8.10;99.90;;;;;;5092877;28;20035;-53
2024/02/01 10:48:10;;;;;;;14.63;2.25;;;8.30;99.90;;;;;;5110587;28;20464;-53
2024/02/01 10:50:39;;;;;;;23.02;3.80;;;8.20;99.90;;;;;;5098489;28;20020;-54
2024/02/01 10:53:11;;;;;;;29.98;3.08;;;8.20;99.90;;;;;;5094107;28;20039;-53
2024/02/01 10:55:39;;;;;;;16.15;2.65;;;8.20;99.90;;;;;;5096706;28;20511;-53
2024/02/01 10:58:12;;;;;;;32.78;3.92;;;8.30;99.90;;;;;;5108810;28;20016;-54
2024/02/01 11:00:40;;;;;;;24.63;2.80;;;8.40;99.90;;;;;;5098012;28;20483;-53
2024/02/01 11:03:08;;;;;;;21.52;3.30;;;8.50;99.90;;;;;;5093707;28;20077;-54
2024/02/01 11:05:36;;;;;;;22.55;2.30;;;8.60;99.90;;;;;;5094022;28;20035;-53
2024/02/01 11:08:02;;;;;;;18.55;2.25;;;8.70;99.90;;;;;;5111149;28;20114;-54
2024/02/01 11:10:28;;;;;;;13.13;2.58;;;8.70;99.90;;;;;;5099318;28;20558;-55
2024/02/01 11:12:55;;;;;;;19.23;2.58;;;8.80;99.90;;;;;;5094030;28;20112;-54
2024/02/01 11:15:25;;;;;;;16.45;2.15;;;8.80;99.90;;;;;;5093823;28;20024;-51
2024/02/01 11:17:51;;;;;;;17.33;2.63;;;8.70;99.90;;;;;;5093472;28;20493;-55
2024/02/01 11:20:25;;;;;;;18.00;2.63;;;8.80;99.90;;;;;;5091587;28;20115;-53
2024/02/01 11:22:58;;;;;;;17.70;3.25;;;8.80;99.90;;;;;;5093267;28;20044;-54
2024/02/01 11:25:33;;;;;;;26.95;3.90;;;8.90;99.90;;;;;;5093411;28;20380;-55
2024/02/01 11:28:00;;;;;;;22.00;3.05;;;8.80;99.90;;;;;;5093323;28;20031;-55
2024/02/01 11:30:33;;;;;;;10.38;1.98;;;8.70;99.90;;;;;;5092939;28;20380;-54
2024/02/01 11:32:59;;;;;;;19.40;3.60;;;8.70;99.90;;;;;;5093036;28;20036;-55
2024/02/01 11:35:27;;;;;;;19.88;2.35;;;8.70;99.90;;;;;;5093225;28;20500;-53
2024/02/01 11:37:53;;;;;;;;;;;8.70;99.90;;;;;;5094882;28;20089;-58
2024/02/01 11:40:19;;;;;;;15.40;1.98;;;8.80;99.90;;;;;;5093315;28;20432;-55
2024/02/01 11:42:45;;;;;;;21.05;2.20;;;8.90;99.90;;;;;;5100209;28;20383;-54
2024/02/01 11:45:13;;;;;;;12.15;2.55;;;9.00;99.90;;;;;;5110934;28;20070;-55
2024/02/01 11:47:39;;;;;;;16.35;2.13;;;9.00;99.90;;;;;;5106135;28;20380;-54
2024/02/01 11:50:07;;;;;;;18.40;2.00;;;9.20;99.90;;;;;;5113108;28;20028;-42
2024/02/01 11:52:43;;;;;;;;;;;9.20;99.90;;;;;;5105178;28;20024;-39
2024/02/01 11:55:09;;;;;;;31.58;3.60;;;9.20;99.90;;;;;;5092794;28;20474;-42
2024/02/01 11:57:47;;;;;;;28.15;2.15;;;9.30;99.90;;;;;;5097024;28;20068;-40
2024/02/01 12:00:16;;;;;;;15.48;2.17;;;9.30;99.90;;;;;;5113676;28;20102;-39
2024/02/01 12:03:02;;;;;;;17.40;1.70;;;9.40;99.90;;;;;;5098799;28;20388;-41
2024/02/01 12:05:30;;;;;;;14.23;2.63;;;9.60;99.90;;;;;;5093144;28;20522;-40
2024/02/01 12:07:59;;;;;;;18.45;3.35;;;9.50;99.90;;;;;;5093677;28;20103;-41
2024/02/01 12:10:25;;;;;;;19.92;2.90;;;9.50;99.90;;;;;;5093044;28;20016;-40
2024/02/01 12:12:50;;;;;;;13.60;2.38;;;9.70;99.90;;;;;;5104752;28;20494;-43
2024/02/01 12:15:16;;;;;;;16.17;2.33;;;9.80;99.90;;;;;;5113034;28;20024;-48
2024/02/01 12:17:45;;;;;;;23.60;3.80;;;9.80;99.90;;;;;;5112357;28;20034;-43
2024/02/01 12:20:12;;;;;;;17.23;3.45;;;9.60;99.90;;;;;;5092735;28;20028;-46
2024/02/01 12:22:38;;;;;;;17.85;3.75;;;9.80;99.90;;;;;;5092661;28;20615;-40
2024/02/01 12:25:15;;;;;;;12.02;2.17;;;9.90;99.90;;;;;;5092893;28;20028;-41
2024/02/01 12:27:45;;;;;;;17.40;2.33;;;10.10;99.90;;;;;;5102829;28;20031;-42
2024/02/01 12:30:14;;;;;;;25.92;2.53;;;10.20;99.90;;;;;;5113127;28;20027;-43
2024/02/01 12:32:46;;;;;;;15.75;2.17;;;10.20;99.90;;;;;;5113306;28;20115;-44
2024/02/01 12:35:17;;;;;;;16.90;2.20;;;10.10;99.90;;;;;;5112967;28;20078;-43
2024/02/01 12:37:43;;;;;;;33.13;4.03;;;10.10;99.90;;;;;;5100386;28;20451;-46
2024/02/01 12:40:11;;;;;;;22.08;3.05;;;10.10;99.90;;;;;;5092764;28;20036;-39
2024/02/01 12:42:41;;;;;;;12.02;1.77;;;10.00;99.90;;;;;;5091179;28;20024;-42
2024/02/01 12:45:08;;;;;;;28.80;2.72;;;10.00;99.90;;;;;;5092795;28;20456;-39
2024/02/01 12:47:37;;;;;;;11.03;1.97;;;9.90;99.90;;;;;;5105617;28;20559;-48
2024/02/01 12:50:07;;;;;;;14.07;3.15;;;9.80;99.90;;;;;;5112826;28;20265;-50
2024/02/01 12:52:36;;;;;;;16.50;2.53;;;9.70;99.90;;;;;;5111807;28;20107;-56
2024/02/01 12:55:01;;;;;;;21.48;1.85;;;9.80;99.90;;;;;;5111654;28;20157;-56
2024/02/01 12:57:28;;;;;;;20.25;2.25;;;9.80;99.90;;;;;;5092451;28;20111;-56
2024/02/01 12:59:58;;;;;;;18.80;2.83;;;9.80;99.90;;;;;;5091286;28;20472;-55
2024/02/01 13:02:25;;;;;;;18.73;3.53;;;9.90;99.90;;;;;;5093540;28;20020;-58
2024/02/01 13:04:52;;;;;;;21.58;2.10;;;9.90;99.90;;;;;;5106183;28;20023;-56
2024/02/01 13:07:17;;;;;;;22.95;3.00;;;10.00;99.90;;;;;;5100357;28;20499;-53
2024/02/01 13:09:43;;;;;;;22.42;3.00;;;10.00;99.90;;;;;;5116238;28;20024;-55
2024/02/01 13:12:18;;;;;;;21.90;3.20;;;9.90;99.90;;;;;;5115626;28;20023;-56
2024/02/01 13:15:00;;;;;;;25.27;2.35;;;9.80;99.90;;;;;;5095963;28;20104;-57
2024/02/01 13:17:36;;;;;;;15.98;3.40;;;9.60;99.90;;;;;;5096358;28;20102;-56
2024/02/01 13:20:18;;;;;;;18.80;3.13;;;9.50;99.90;;;;;;5096073;28;20127;-56
2024/02/01 13:22:45;;;;;;;11.00;1.65;;;9.40;99.90;;;;;;5095525;28;20044;-54
2024/02/01 13:25:18;;;;;;;26.00;3.03;;;9.50;99.90;;;;;;5096073;28;20076;-56
2024/02/01 13:27:50;;;;;;;10.80;1.95;;;9.70;99.90;;;;;;5096873;28;20016;-55
2024/02/01 13:30:17;;;;;;;12.07;2.50;;;10.00;99.90;;;;;;5116532;28;20539;-54
2024/02/01 13:32:43;;;;;;;19.97;2.33;;;10.20;99.90;;;;;;5114388;28;20471;-55
2024/02/01 13:35:10;;;;;;;13.05;2.80;;;10.40;99.90;;;;;;5095636;28;20546;-56
2024/02/01 13:37:37;;;;;;;22.60;2.88;;;10.60;99.90;;;;;;5095664;28;20024;-57